createdAt,value
2019-02-08T00:00:20.225Z,4.68
2019-02-08T00:01:20.253Z,4.73
2019-02-08T00:02:20.262Z,4.74
2019-02-08T00:03:20.193Z,4.68
2019-02-08T00:04:20.212Z,4.71
2019-02-08T00:05:20.213Z,4.63
2019-02-08T00:06:20.178Z,4.67
2019-02-08T00:07:20.171Z,4.70
2019-02-08T00:08:20.143Z,4.68
2019-02-08T00:09:20.192Z,4.68
2019-02-08T00:10:20.117Z,4.68
2019-02-08T00:11:20.107Z,4.67
2019-02-08T00:12:20.106Z,4.70
2019-02-08T00:13:20.098Z,4.67
2019-02-08T00:14:20.110Z,4.66
2019-02-08T00:15:20.075Z,4.67
2019-02-08T00:16:20.059Z,4.74
2019-02-08T00:17:20.076Z,4.60
2019-02-08T00:18:20.033Z,4.82
2019-02-08T00:19:20.052Z,4.75
2019-02-08T00:20:20.041Z,4.75
2019-02-08T00:21:20.029Z,4.80
2019-02-08T00:22:20.019Z,4.70
2019-02-08T00:23:26.945Z,4.75
2019-02-08T00:24:20.974Z,4.74
2019-02-08T00:25:20.003Z,4.78
2019-02-08T00:26:19.959Z,4.78
2019-02-08T00:27:19.948Z,4.70
2019-02-08T00:28:19.932Z,4.66
2019-02-08T00:29:19.919Z,4.67
2019-02-08T00:30:19.938Z,4.63
2019-02-08T00:31:19.906Z,4.66
2019-02-08T00:32:19.915Z,4.56
2019-02-08T00:33:19.959Z,4.62
2019-02-08T00:34:19.870Z,4.55
2019-02-08T00:35:19.861Z,4.63
2019-02-08T00:36:19.858Z,4.52
2019-02-08T00:37:19.852Z,4.58
2019-02-08T00:38:19.855Z,4.56
2019-02-08T00:39:19.848Z,4.50
2019-02-08T00:40:19.809Z,4.49
2019-02-08T00:41:19.823Z,4.52
2019-02-08T00:42:19.791Z,4.45
2019-02-08T00:43:19.779Z,4.41
2019-02-08T00:44:19.776Z,4.48
2019-02-08T00:45:19.756Z,4.49
2019-02-08T00:46:19.772Z,4.44
2019-02-08T00:47:19.733Z,4.40
2019-02-08T00:48:19.723Z,4.38
2019-02-08T00:49:19.723Z,4.48
2019-02-08T00:50:19.731Z,4.42
2019-02-08T00:51:19.722Z,4.37
2019-02-08T00:52:19.691Z,4.38
2019-02-08T00:53:19.713Z,4.41
2019-02-08T00:54:19.666Z,4.44
2019-02-08T00:55:19.651Z,4.40
2019-02-08T00:56:19.642Z,4.40
2019-02-08T00:57:19.662Z,4.34
2019-02-08T00:58:19.637Z,4.45
2019-02-08T00:59:19.612Z,4.38
2019-02-08T01:00:19.600Z,4.49
2019-02-08T01:01:19.617Z,4.49
2019-02-08T01:02:19.583Z,4.49
2019-02-08T01:03:19.567Z,4.48
2019-02-08T01:04:19.590Z,4.49
2019-02-08T01:05:19.554Z,4.52
2019-02-08T01:06:19.584Z,4.52
2019-02-08T01:07:19.552Z,4.55
2019-02-08T01:08:19.515Z,4.50
2019-02-08T01:09:19.502Z,4.58
2019-02-08T01:10:19.493Z,4.50
2019-02-08T01:11:19.518Z,4.49
2019-02-08T01:12:19.490Z,4.53
2019-02-08T01:13:19.466Z,4.55
2019-02-08T01:14:19.449Z,4.62
2019-02-08T01:15:19.443Z,4.60
2019-02-08T01:16:19.469Z,4.62
2019-02-08T01:17:19.451Z,4.53
2019-02-08T01:18:19.413Z,4.53
2019-02-08T01:19:19.400Z,4.53
2019-02-08T01:20:19.393Z,4.60
2019-02-08T01:21:19.413Z,4.55
2019-02-08T01:22:19.370Z,4.59
2019-02-08T01:23:19.359Z,4.59
2019-02-08T01:24:19.377Z,4.56
2019-02-08T01:25:19.408Z,4.52
2019-02-08T01:26:19.338Z,4.49
2019-02-08T01:27:19.323Z,4.53
2019-02-08T01:28:19.310Z,4.58
2019-02-08T01:29:19.294Z,4.56
2019-02-08T01:30:19.313Z,4.58
2019-02-08T01:31:19.278Z,4.60
2019-02-08T01:32:19.270Z,4.53
2019-02-08T01:33:19.283Z,4.55
2019-02-08T01:34:19.247Z,4.53
2019-02-08T01:35:19.269Z,4.66
2019-02-08T01:36:19.232Z,4.62
2019-02-08T01:37:19.223Z,4.58
2019-02-08T01:38:19.205Z,4.71
2019-02-08T01:39:19.222Z,4.62
2019-02-08T01:40:19.183Z,4.62
2019-02-08T01:41:19.175Z,4.68
2019-02-08T01:42:19.187Z,4.63
2019-02-08T01:43:19.167Z,4.73
2019-02-08T01:44:19.171Z,4.71
2019-02-08T01:45:19.181Z,4.70
2019-02-08T01:46:19.121Z,4.75
2019-02-08T01:47:19.168Z,4.70
2019-02-08T01:48:19.100Z,4.71
2019-02-08T01:49:19.090Z,4.71
2019-02-08T01:50:19.112Z,4.71
2019-02-08T01:51:19.076Z,4.70
2019-02-08T01:52:19.098Z,4.71
2019-02-08T01:53:19.048Z,4.70
2019-02-08T01:54:19.091Z,4.67
2019-02-08T01:55:19.037Z,4.67
2019-02-08T01:56:19.042Z,4.62
2019-02-08T01:57:19.043Z,4.71
2019-02-08T01:58:18.998Z,4.59
2019-02-08T01:59:18.992Z,4.63
2019-02-08T02:00:19.034Z,4.56
2019-02-08T02:01:18.963Z,4.60
2019-02-08T02:02:19.008Z,4.60
2019-02-08T02:03:18.943Z,4.62
2019-02-08T02:04:18.939Z,4.63
2019-02-08T02:05:18.938Z,4.70
2019-02-08T02:06:18.928Z,4.59
2019-02-08T02:07:18.951Z,4.63
2019-02-08T02:08:18.909Z,4.56
2019-02-08T02:09:18.882Z,4.68
2019-02-08T02:10:18.875Z,4.66
2019-02-08T02:11:18.889Z,4.78
2019-02-08T02:12:18.890Z,4.73
2019-02-08T02:13:18.840Z,4.74
2019-02-08T02:14:18.865Z,4.82
2019-02-08T02:15:18.842Z,4.84
2019-02-08T02:16:18.810Z,4.80
2019-02-08T02:17:18.801Z,4.90
2019-02-08T02:18:18.788Z,4.78
2019-02-08T02:19:18.859Z,4.77
2019-02-08T02:20:18.768Z,4.80
2019-02-08T02:21:18.789Z,4.84
2019-02-08T02:22:18.766Z,4.77
2019-02-08T02:23:18.745Z,4.84
2019-02-08T02:24:18.750Z,4.82
2019-02-08T02:25:18.743Z,4.86
2019-02-08T02:26:18.732Z,4.89
2019-02-08T02:27:18.695Z,4.75
2019-02-08T02:28:18.694Z,4.80
2019-02-08T02:29:18.679Z,4.78
2019-02-08T02:30:18.689Z,4.80
2019-02-08T02:31:18.653Z,4.82
2019-02-08T02:32:18.668Z,4.86
2019-02-08T02:33:18.642Z,4.80
2019-02-08T02:34:18.649Z,4.82
2019-02-08T02:35:18.611Z,4.89
2019-02-08T02:36:18.602Z,4.89
2019-02-08T02:37:18.594Z,4.93
2019-02-08T02:38:18.580Z,4.89
2019-02-08T02:39:18.597Z,4.92
2019-02-08T02:40:18.566Z,4.97
2019-02-08T02:41:18.558Z,4.87
2019-02-08T02:42:18.537Z,4.94
2019-02-08T02:43:18.553Z,4.84
2019-02-08T02:44:18.561Z,4.86
2019-02-08T02:45:18.504Z,4.80
2019-02-08T02:46:18.498Z,4.78
2019-02-08T02:47:18.485Z,4.80
2019-02-08T02:48:18.478Z,4.86
2019-02-08T02:49:18.502Z,4.87
2019-02-08T02:50:18.510Z,4.82
2019-02-08T02:51:18.449Z,4.87
2019-02-08T02:52:18.450Z,4.82
2019-02-08T02:53:18.423Z,4.71
2019-02-08T02:54:18.451Z,4.73
2019-02-08T02:55:18.409Z,4.63
2019-02-08T02:56:18.417Z,4.60
2019-02-08T02:57:18.382Z,4.66
2019-02-08T02:58:18.381Z,4.70
2019-02-08T02:59:18.395Z,4.70
2019-02-08T03:00:18.349Z,4.73
2019-02-08T03:01:18.366Z,4.63
2019-02-08T03:02:18.348Z,4.60
2019-02-08T03:03:18.319Z,4.63
2019-02-08T03:04:18.313Z,4.73
2019-02-08T03:05:18.339Z,4.68
2019-02-08T03:06:18.300Z,4.68
2019-02-08T03:07:18.285Z,4.66
2019-02-08T03:08:18.269Z,4.67
2019-02-08T03:09:18.260Z,4.68
2019-02-08T03:10:18.275Z,4.71
2019-02-08T03:11:18.238Z,4.80
2019-02-08T03:12:18.228Z,4.63
2019-02-08T03:13:18.282Z,4.71
2019-02-08T03:14:18.241Z,4.70
2019-02-08T03:15:18.195Z,4.71
2019-02-08T03:16:18.196Z,4.74
2019-02-08T03:17:18.178Z,4.78
2019-02-08T03:18:18.193Z,4.77
2019-02-08T03:19:18.153Z,4.86
2019-02-08T03:20:18.150Z,4.80
2019-02-08T03:21:18.162Z,4.84
2019-02-08T03:22:18.137Z,4.90
2019-02-08T03:23:18.133Z,4.78
2019-02-08T03:24:18.105Z,4.86
2019-02-08T03:25:18.094Z,4.82
2019-02-08T03:26:18.124Z,4.89
2019-02-08T03:27:18.070Z,4.78
2019-02-08T03:28:18.088Z,4.75
2019-02-08T03:29:18.053Z,4.78
2019-02-08T03:30:18.117Z,4.87
2019-02-08T03:31:18.044Z,4.87
2019-02-08T03:32:18.024Z,4.78
2019-02-08T03:33:18.069Z,4.87
2019-02-08T03:34:17.999Z,4.86
2019-02-08T03:35:17.988Z,4.82
2019-02-08T03:36:17.987Z,4.87
2019-02-08T03:37:17.973Z,4.80
2019-02-08T03:38:18.024Z,4.82
2019-02-08T03:39:17.946Z,4.86
2019-02-08T03:40:17.958Z,4.71
2019-02-08T03:41:17.932Z,4.74
2019-02-08T03:42:17.927Z,4.74
2019-02-08T03:43:17.937Z,4.67
2019-02-08T03:44:17.900Z,4.62
2019-02-08T03:45:17.889Z,4.77
2019-02-08T03:46:17.878Z,4.71
2019-02-08T03:47:17.879Z,4.63
2019-02-08T03:48:17.880Z,4.73
2019-02-08T03:49:17.851Z,4.68
2019-02-08T03:50:17.844Z,4.66
2019-02-08T03:51:17.887Z,4.59
2019-02-08T03:52:17.817Z,4.59
2019-02-08T03:53:17.817Z,4.52
2019-02-08T03:54:21.243Z,4.56
2019-02-08T03:55:17.782Z,4.52
2019-02-08T03:56:17.781Z,4.45
2019-02-08T03:57:17.794Z,4.42
2019-02-08T03:58:17.753Z,4.37
2019-02-08T03:59:17.764Z,4.34
2019-02-08T04:00:17.738Z,4.31
2019-02-08T04:01:17.744Z,4.38
2019-02-08T04:02:17.750Z,4.30
2019-02-08T04:03:17.705Z,4.35
2019-02-08T04:04:17.693Z,4.37
2019-02-08T04:05:17.681Z,4.32
2019-02-08T04:06:17.693Z,4.31
2019-02-08T04:07:17.685Z,4.31
2019-02-08T04:08:17.678Z,4.35
2019-02-08T04:09:17.638Z,4.41
2019-02-08T04:10:17.629Z,4.31
2019-02-08T04:11:17.655Z,4.30
2019-02-08T04:12:17.610Z,4.45
2019-02-08T04:13:17.595Z,4.22
2019-02-08T04:14:17.587Z,4.41
2019-02-08T04:15:17.596Z,4.35
2019-02-08T04:16:17.598Z,4.34
2019-02-08T04:17:17.556Z,4.37
2019-02-08T04:18:17.543Z,4.32
2019-02-08T04:19:17.532Z,4.40
2019-02-08T04:20:17.524Z,4.44
2019-02-08T04:21:17.547Z,4.45
2019-02-08T04:22:17.544Z,4.49
2019-02-08T04:23:17.507Z,4.50
2019-02-08T04:24:17.480Z,4.55
2019-02-08T04:25:17.474Z,4.49
2019-02-08T04:26:17.500Z,4.50
2019-02-08T04:27:17.449Z,4.49
2019-02-08T04:28:17.441Z,4.50
2019-02-08T04:29:17.464Z,4.58
2019-02-08T04:30:17.421Z,4.58
2019-02-08T04:31:17.442Z,4.66
2019-02-08T04:32:17.431Z,4.74
2019-02-08T04:33:17.389Z,4.71
2019-02-08T04:34:17.388Z,4.62
2019-02-08T04:35:17.401Z,4.67
2019-02-08T04:36:17.394Z,4.74
2019-02-08T04:37:17.371Z,4.67
2019-02-08T04:38:18.577Z,4.75
2019-02-08T04:39:17.338Z,4.77
2019-02-08T04:40:17.334Z,4.74
2019-02-08T04:41:17.352Z,4.80
2019-02-08T04:42:17.292Z,4.80
2019-02-08T04:43:17.317Z,4.74
2019-02-08T04:44:17.277Z,4.60
2019-02-08T04:45:17.269Z,4.84
2019-02-08T04:46:17.342Z,4.73
2019-02-08T04:47:17.244Z,4.82
2019-02-08T04:48:17.247Z,4.78
2019-02-08T04:49:17.226Z,4.84
2019-02-08T04:50:17.217Z,4.68
2019-02-08T04:51:17.235Z,4.87
2019-02-08T04:52:17.190Z,4.78
2019-02-08T04:53:17.248Z,4.80
2019-02-08T04:54:17.204Z,4.99
2019-02-08T04:55:17.178Z,4.94
2019-02-08T04:56:17.176Z,4.92
2019-02-08T04:57:17.146Z,4.93
2019-02-08T04:58:17.154Z,4.97
2019-02-08T04:59:17.117Z,5.00
2019-02-08T05:00:17.110Z,5.02
2019-02-08T05:01:17.096Z,4.90
2019-02-08T05:02:17.111Z,4.90
2019-02-08T05:03:17.080Z,4.84
2019-02-08T05:04:17.063Z,4.89
2019-02-08T05:05:17.058Z,4.89
2019-02-08T05:06:17.067Z,4.92
2019-02-08T05:07:17.060Z,4.93
2019-02-08T05:08:17.045Z,4.99
2019-02-08T05:09:17.016Z,4.90
2019-02-08T05:10:17.016Z,4.89
2019-02-08T05:11:17.013Z,4.90
2019-02-08T05:12:16.980Z,5.00
2019-02-08T05:13:17.019Z,4.89
2019-02-08T05:14:16.973Z,5.00
2019-02-08T05:15:16.965Z,4.89
2019-02-08T05:16:16.963Z,4.94
2019-02-08T05:17:16.936Z,4.97
2019-02-08T05:18:16.960Z,5.00
2019-02-08T05:19:16.907Z,5.02
2019-02-08T05:20:16.898Z,5.00
2019-02-08T05:21:16.937Z,4.90
2019-02-08T05:22:16.890Z,5.10
2019-02-08T05:23:16.882Z,5.00
2019-02-08T05:24:16.856Z,5.05
2019-02-08T05:25:16.844Z,5.08
2019-02-08T05:26:16.876Z,4.99
2019-02-08T05:27:16.822Z,5.05
2019-02-08T05:28:16.811Z,5.10
2019-02-08T05:29:16.821Z,5.05
2019-02-08T05:30:16.795Z,5.05
2019-02-08T05:31:16.817Z,5.14
2019-02-08T05:32:16.778Z,5.08
2019-02-08T05:33:16.760Z,5.02
2019-02-08T05:34:16.749Z,5.08
2019-02-08T05:35:16.789Z,5.07
2019-02-08T05:36:16.757Z,5.04
2019-02-08T05:37:16.717Z,5.07
2019-02-08T05:38:16.707Z,5.04
2019-02-08T05:39:16.700Z,4.94
2019-02-08T05:40:16.686Z,4.90
2019-02-08T05:41:16.723Z,5.02
2019-02-08T05:42:16.672Z,4.99
2019-02-08T05:43:16.660Z,4.94
2019-02-08T05:44:16.648Z,5.00
2019-02-08T05:45:16.639Z,4.92
2019-02-08T05:46:16.679Z,4.97
2019-02-08T05:47:16.645Z,5.02
2019-02-08T05:48:16.600Z,5.02
2019-02-08T05:49:16.593Z,5.05
2019-02-08T05:50:16.613Z,4.93
2019-02-08T05:51:16.579Z,4.94
2019-02-08T05:52:16.612Z,4.94
2019-02-08T05:53:16.553Z,5.05
2019-02-08T05:54:16.543Z,4.94
2019-02-08T05:55:16.530Z,4.97
2019-02-08T05:56:16.516Z,4.99
2019-02-08T05:57:16.537Z,4.93
2019-02-08T05:58:16.545Z,4.86
2019-02-08T05:59:16.485Z,4.84
2019-02-08T06:00:16.473Z,4.78
2019-02-08T06:01:16.469Z,4.80
2019-02-08T06:02:16.453Z,4.94
2019-02-08T06:03:16.467Z,4.84
2019-02-08T06:04:16.433Z,4.80
2019-02-08T06:05:16.423Z,4.78
2019-02-08T06:06:16.467Z,4.86
2019-02-08T06:07:16.416Z,4.77
2019-02-08T06:08:16.412Z,4.86
2019-02-08T06:09:16.409Z,4.87
2019-02-08T06:10:16.367Z,4.84
2019-02-08T06:11:16.360Z,4.86
2019-02-08T06:12:16.353Z,4.92
2019-02-08T06:13:16.368Z,4.80
2019-02-08T06:14:16.331Z,4.75
2019-02-08T06:15:16.321Z,4.82
2019-02-08T06:16:16.303Z,4.86
2019-02-08T06:17:16.314Z,4.78
2019-02-08T06:18:16.310Z,4.80
2019-02-08T06:19:16.304Z,4.90
2019-02-08T06:20:16.274Z,4.86
2019-02-08T06:21:16.291Z,4.84
2019-02-08T06:22:16.242Z,4.86
2019-02-08T06:23:16.229Z,4.92
2019-02-08T06:24:16.254Z,4.93
2019-02-08T06:25:16.212Z,4.89
2019-02-08T06:26:16.218Z,4.89
2019-02-08T06:27:16.193Z,4.94
2019-02-08T06:28:16.188Z,4.99
2019-02-08T06:29:16.194Z,5.05
2019-02-08T06:30:16.226Z,5.07
2019-02-08T06:31:16.145Z,5.05
2019-02-08T06:32:16.138Z,5.10
2019-02-08T06:33:16.142Z,5.05
2019-02-08T06:34:16.205Z,5.05
2019-02-08T06:35:16.136Z,5.02
2019-02-08T06:36:16.127Z,5.11
2019-02-08T06:37:16.086Z,5.08
2019-02-08T06:38:16.071Z,5.11
2019-02-08T06:39:16.088Z,5.10
2019-02-08T06:40:16.052Z,5.14
2019-02-08T06:41:16.073Z,5.04
2019-02-08T06:42:16.044Z,5.08
2019-02-08T06:43:16.019Z,5.18
2019-02-08T06:44:16.020Z,5.18
2019-02-08T06:45:15.997Z,5.15
2019-02-08T06:46:16.053Z,5.17
2019-02-08T06:47:15.980Z,5.15
2019-02-08T06:48:15.996Z,5.18
2019-02-08T06:49:16.001Z,5.18
2019-02-08T06:50:15.957Z,5.23
2019-02-08T06:51:15.945Z,5.30
2019-02-08T06:52:15.928Z,5.30
2019-02-08T06:53:15.951Z,5.28
2019-02-08T06:54:15.918Z,5.30
2019-02-08T06:55:15.898Z,5.29
2019-02-08T06:56:15.889Z,5.36
2019-02-08T06:57:15.912Z,5.33
2019-02-08T06:58:15.888Z,5.33
2019-02-08T06:59:15.881Z,5.30
2019-02-08T07:00:15.848Z,5.32
2019-02-08T07:01:15.851Z,5.30
2019-02-08T07:02:15.823Z,5.28
2019-02-08T07:03:15.838Z,5.25
2019-02-08T07:04:15.828Z,5.30
2019-02-08T07:05:15.798Z,5.29
2019-02-08T07:06:15.788Z,5.26
2019-02-08T07:07:15.787Z,5.33
2019-02-08T07:08:15.791Z,5.29
2019-02-08T07:09:15.748Z,5.33
2019-02-08T07:10:15.741Z,5.29
2019-02-08T07:11:15.733Z,5.26
2019-02-08T07:12:15.745Z,5.29
2019-02-08T07:13:15.728Z,5.35
2019-02-08T07:14:15.726Z,5.32
2019-02-08T07:15:15.721Z,5.41
2019-02-08T07:16:15.700Z,5.41
2019-02-08T07:17:15.667Z,5.39
2019-02-08T07:18:15.660Z,5.46
2019-02-08T07:19:15.680Z,5.38
2019-02-08T07:20:15.674Z,5.39
2019-02-08T07:21:15.625Z,5.43
2019-02-08T07:22:15.616Z,5.46
2019-02-08T07:23:15.635Z,5.36
2019-02-08T07:24:15.618Z,5.39
2019-02-08T07:25:18.656Z,5.41
2019-02-08T07:26:15.579Z,5.38
2019-02-08T07:27:15.593Z,5.41
2019-02-08T07:28:15.558Z,5.35
2019-02-08T07:29:15.570Z,5.36
2019-02-08T07:30:15.533Z,5.36
2019-02-08T07:31:15.542Z,5.43
2019-02-08T07:32:15.511Z,5.38
2019-02-08T07:33:15.503Z,5.41
2019-02-08T07:34:15.493Z,5.43
2019-02-08T07:35:15.481Z,5.33
2019-02-08T07:36:15.539Z,5.35
2019-02-08T07:37:15.464Z,5.41
2019-02-08T07:38:15.451Z,5.32
2019-02-08T07:39:15.439Z,5.39
2019-02-08T07:40:15.428Z,5.43
2019-02-08T07:41:15.459Z,5.36
2019-02-08T07:42:15.408Z,5.38
2019-02-08T07:43:15.406Z,5.39
2019-02-08T07:44:15.448Z,5.39
2019-02-08T07:45:15.387Z,5.41
2019-02-08T07:46:15.377Z,5.43
2019-02-08T07:47:15.357Z,5.44
2019-02-08T07:48:15.375Z,5.36
2019-02-08T07:49:15.367Z,5.43
2019-02-08T07:50:15.329Z,5.51
2019-02-08T07:51:15.314Z,5.53
2019-02-08T07:52:15.313Z,5.51
2019-02-08T07:53:15.295Z,5.51
2019-02-08T07:54:15.334Z,5.51
2019-02-08T07:55:15.272Z,5.54
2019-02-08T07:56:15.292Z,5.48
2019-02-08T07:57:15.329Z,5.46
2019-02-08T07:58:15.286Z,5.51
2019-02-08T07:59:15.255Z,5.54
2019-02-08T08:00:15.225Z,5.53
2019-02-08T08:01:15.221Z,5.47
2019-02-08T08:02:15.200Z,5.50
2019-02-08T08:03:15.244Z,5.47
2019-02-08T08:04:15.181Z,5.48
2019-02-08T08:05:15.174Z,5.53
2019-02-08T08:06:15.213Z,5.53
2019-02-08T08:07:15.163Z,5.53
2019-02-08T08:08:15.182Z,5.50
2019-02-08T08:09:15.134Z,5.51
2019-02-08T08:10:15.118Z,5.54
2019-02-08T08:11:15.137Z,5.51
2019-02-08T08:12:15.107Z,5.53
2019-02-08T08:13:15.095Z,5.50
2019-02-08T08:14:15.079Z,5.50
2019-02-08T08:15:15.084Z,5.62
2019-02-08T08:16:15.083Z,5.61
2019-02-08T08:17:15.051Z,5.62
2019-02-08T08:18:15.059Z,5.57
2019-02-08T08:19:15.988Z,5.54
2019-02-08T08:20:15.026Z,5.64
2019-02-08T08:21:15.008Z,5.61
2019-02-08T08:22:15.043Z,5.65
2019-02-08T08:23:15.012Z,5.57
2019-02-08T08:24:15.006Z,5.59
2019-02-08T08:25:14.988Z,5.69
2019-02-08T08:26:14.951Z,5.62
2019-02-08T08:27:14.943Z,5.64
2019-02-08T08:28:14.933Z,5.65
2019-02-08T08:29:14.946Z,5.54
2019-02-08T08:30:14.924Z,5.61
2019-02-08T08:31:14.910Z,5.65
2019-02-08T08:32:14.907Z,5.57
2019-02-08T08:33:14.880Z,5.62
2019-02-08T08:34:14.872Z,5.54
2019-02-08T08:35:14.860Z,5.68
2019-02-08T08:36:14.859Z,5.61
2019-02-08T08:37:14.880Z,5.68
2019-02-08T08:38:14.829Z,5.64
2019-02-08T08:39:14.816Z,5.73
2019-02-08T08:40:14.807Z,5.62
2019-02-08T08:41:14.796Z,5.66
2019-02-08T08:42:14.829Z,5.66
2019-02-08T08:43:15.273Z,5.72
2019-02-08T08:44:14.770Z,5.68
2019-02-08T08:45:14.757Z,5.75
2019-02-08T08:46:14.760Z,5.69
2019-02-08T08:47:14.804Z,5.68
2019-02-08T08:48:14.725Z,5.72
2019-02-08T08:49:14.713Z,5.79
2019-02-08T08:50:14.703Z,5.83
2019-02-08T08:51:14.715Z,5.84
2019-02-08T08:52:14.687Z,5.84
2019-02-08T08:53:14.672Z,5.90
2019-02-08T08:54:14.756Z,5.93
2019-02-08T08:55:14.646Z,5.98
2019-02-08T08:56:14.659Z,5.94
2019-02-08T08:57:14.629Z,5.93
2019-02-08T08:58:14.621Z,6.01
2019-02-08T08:59:14.604Z,5.98
2019-02-08T09:00:14.595Z,5.98
2019-02-08T09:01:14.612Z,5.98
2019-02-08T09:02:14.571Z,6.02
2019-02-08T09:03:14.593Z,5.99
2019-02-08T09:04:14.549Z,5.91
2019-02-08T09:05:14.585Z,6.01
2019-02-08T09:06:14.542Z,6.02
2019-02-08T09:07:16.394Z,6.08
2019-02-08T09:08:14.509Z,5.99
2019-02-08T09:09:14.498Z,5.97
2019-02-08T09:10:14.518Z,6.02
2019-02-08T09:11:14.514Z,5.97
2019-02-08T09:12:14.485Z,6.05
2019-02-08T09:13:15.003Z,6.05
2019-02-08T09:14:14.441Z,6.02
2019-02-08T09:15:14.439Z,6.07
2019-02-08T09:16:14.449Z,6.09
2019-02-08T09:17:14.485Z,6.05
2019-02-08T09:18:14.398Z,6.11
2019-02-08T09:19:14.391Z,6.08
2019-02-08T09:20:14.383Z,6.07
2019-02-08T09:21:14.382Z,6.11
2019-02-08T09:22:14.379Z,6.11
2019-02-08T09:23:14.362Z,6.12
2019-02-08T09:24:14.334Z,6.08
2019-02-08T09:25:14.332Z,6.14
2019-02-08T09:26:14.321Z,6.16
2019-02-08T09:27:14.336Z,6.07
2019-02-08T09:28:14.287Z,6.05
2019-02-08T09:29:14.301Z,6.11
2019-02-08T09:30:14.267Z,6.08
2019-02-08T09:31:14.257Z,6.07
2019-02-08T09:32:14.305Z,6.05
2019-02-08T09:33:14.232Z,6.08
2019-02-08T09:34:14.222Z,6.08
2019-02-08T09:35:14.229Z,6.08
2019-02-08T09:36:14.202Z,6.12
2019-02-08T09:37:14.214Z,6.14
2019-02-08T09:38:14.193Z,6.11
2019-02-08T09:39:14.164Z,6.20
2019-02-08T09:40:14.156Z,6.19
2019-02-08T09:41:14.174Z,6.12
2019-02-08T09:42:14.171Z,6.22
2019-02-08T09:43:14.118Z,6.27
2019-02-08T09:44:14.144Z,6.27
2019-02-08T09:45:14.775Z,6.30
2019-02-08T09:46:14.084Z,6.30
2019-02-08T09:47:14.073Z,6.28
2019-02-08T09:48:14.084Z,6.22
2019-02-08T09:49:14.087Z,6.26
2019-02-08T09:50:14.039Z,6.30
2019-02-08T09:51:14.025Z,6.28
2019-02-08T09:52:14.018Z,6.30
2019-02-08T09:53:14.014Z,6.33
2019-02-08T09:54:14.048Z,6.38
2019-02-08T09:55:13.981Z,6.31
2019-02-08T09:56:14.000Z,6.45
2019-02-08T09:57:13.959Z,6.45
2019-02-08T09:58:14.001Z,6.46
2019-02-08T09:59:13.958Z,6.46
2019-02-08T10:00:13.922Z,6.46
2019-02-08T10:01:13.948Z,6.49
2019-02-08T10:02:13.912Z,6.49
2019-02-08T10:03:13.970Z,6.59
2019-02-08T10:04:13.883Z,6.63
2019-02-08T10:05:13.883Z,6.67
2019-02-08T10:06:13.861Z,6.75
2019-02-08T10:07:13.928Z,6.70
2019-02-08T10:08:13.835Z,6.79
2019-02-08T10:09:13.823Z,6.81
2019-02-08T10:10:13.813Z,6.84
2019-02-08T10:11:13.800Z,7.05
2019-02-08T10:12:13.838Z,7.05
2019-02-08T10:13:13.777Z,7.13
2019-02-08T10:14:13.765Z,7.13
2019-02-08T10:15:13.755Z,7.05
2019-02-08T10:16:13.743Z,7.17
2019-02-08T10:17:13.759Z,7.24
2019-02-08T10:18:13.726Z,7.24
2019-02-08T10:19:13.712Z,7.31
2019-02-08T10:20:13.728Z,7.15
2019-02-08T10:21:13.685Z,7.29
2019-02-08T10:22:13.685Z,7.29
2019-02-08T10:23:13.662Z,7.29
2019-02-08T10:24:13.679Z,7.29
2019-02-08T10:25:13.641Z,7.21
2019-02-08T10:26:13.646Z,7.28
2019-02-08T10:27:13.646Z,7.42
2019-02-08T10:28:13.605Z,7.38
2019-02-08T10:29:13.595Z,7.36
2019-02-08T10:30:13.591Z,7.47
2019-02-08T10:31:13.573Z,7.39
2019-02-08T10:32:13.708Z,7.42
2019-02-08T10:33:13.581Z,7.45
2019-02-08T10:34:13.542Z,7.47
2019-02-08T10:35:13.537Z,7.40
2019-02-08T10:36:13.517Z,7.42
2019-02-08T10:37:13.505Z,7.33
2019-02-08T10:38:13.518Z,7.29
2019-02-08T10:39:13.479Z,7.31
2019-02-08T10:40:13.470Z,7.25
2019-02-08T10:41:13.462Z,7.39
2019-02-08T10:42:13.483Z,7.39
2019-02-08T10:43:13.444Z,7.43
2019-02-08T10:44:13.428Z,7.40
2019-02-08T10:45:13.418Z,7.45
2019-02-08T10:46:13.406Z,7.38
2019-02-08T10:47:13.426Z,7.42
2019-02-08T10:48:13.392Z,7.39
2019-02-08T10:49:13.367Z,7.42
2019-02-08T10:50:13.358Z,7.54
2019-02-08T10:51:13.354Z,7.53
2019-02-08T10:52:13.415Z,7.60
2019-02-08T10:53:13.323Z,7.79
2019-02-08T10:54:13.327Z,7.85
2019-02-08T10:55:13.306Z,7.73
2019-02-08T10:56:14.986Z,7.85
2019-02-08T10:57:13.321Z,8.01
2019-02-08T10:58:13.263Z,8.15
2019-02-08T10:59:13.252Z,8.19
2019-02-08T11:00:13.239Z,8.26
2019-02-08T11:01:13.229Z,8.38
2019-02-08T11:02:13.256Z,8.37
2019-02-08T11:03:13.212Z,8.46
2019-02-08T11:04:13.194Z,8.48
2019-02-08T11:05:13.177Z,8.55
2019-02-08T11:06:13.165Z,8.56
2019-02-08T11:07:13.188Z,8.61
2019-02-08T11:08:13.154Z,8.49
2019-02-08T11:09:13.132Z,8.55
2019-02-08T11:10:13.115Z,8.49
2019-02-08T11:11:13.102Z,8.44
2019-02-08T11:12:13.127Z,8.28
2019-02-08T11:13:13.078Z,8.26
2019-02-08T11:14:13.079Z,8.31
2019-02-08T11:15:13.054Z,8.28
2019-02-08T11:16:13.048Z,8.27
2019-02-08T11:17:13.052Z,8.13
2019-02-08T11:18:13.052Z,8.13
2019-02-08T11:19:13.008Z,8.01
2019-02-08T11:20:12.999Z,8.05
2019-02-08T11:21:12.981Z,8.00
2019-02-08T11:22:12.971Z,7.88
2019-02-08T11:23:12.992Z,7.97
2019-02-08T11:24:12.945Z,7.94
2019-02-08T11:25:12.930Z,8.18
2019-02-08T11:26:12.919Z,8.10
2019-02-08T11:27:12.914Z,8.01
2019-02-08T11:28:13.022Z,8.05
2019-02-08T11:29:12.890Z,8.08
2019-02-08T11:30:12.868Z,8.03
2019-02-08T11:31:12.855Z,8.12
2019-02-08T11:32:12.845Z,8.12
2019-02-08T11:33:12.868Z,8.12
2019-02-08T11:34:12.819Z,8.08
2019-02-08T11:35:12.807Z,8.13
2019-02-08T11:36:12.795Z,8.19
2019-02-08T11:37:12.781Z,8.13
2019-02-08T11:38:12.798Z,8.26
2019-02-08T11:39:12.787Z,8.27
2019-02-08T11:40:12.747Z,8.31
2019-02-08T11:41:12.753Z,8.30
2019-02-08T11:42:12.719Z,8.34
2019-02-08T11:43:12.723Z,8.28
2019-02-08T11:44:12.719Z,8.24
2019-02-08T11:45:12.691Z,8.24
2019-02-08T11:46:12.672Z,8.19
2019-02-08T11:47:12.659Z,8.10
2019-02-08T11:48:12.648Z,8.13
2019-02-08T11:49:12.659Z,8.06
2019-02-08T11:50:12.624Z,8.05
2019-02-08T11:51:12.645Z,7.97
2019-02-08T11:52:12.608Z,8.09
2019-02-08T11:53:12.619Z,8.13
2019-02-08T11:54:12.597Z,8.12
2019-02-08T11:55:12.566Z,8.10
2019-02-08T11:56:12.553Z,8.06
2019-02-08T11:57:12.538Z,8.03
2019-02-08T11:58:12.558Z,8.00
2019-02-08T11:59:12.519Z,7.97
2019-02-08T12:00:12.528Z,7.91
2019-02-08T12:01:12.493Z,7.93
2019-02-08T12:02:12.478Z,7.87
2019-02-08T12:03:12.495Z,7.79
2019-02-08T12:04:12.480Z,7.72
2019-02-08T12:05:12.442Z,7.77
2019-02-08T12:06:12.436Z,7.79
2019-02-08T12:07:12.421Z,7.75
2019-02-08T12:08:12.409Z,7.69
2019-02-08T12:09:12.429Z,7.85
2019-02-08T12:10:12.382Z,7.76
2019-02-08T12:11:12.370Z,7.80
2019-02-08T12:12:12.368Z,7.76
2019-02-08T12:13:12.363Z,7.76
2019-02-08T12:14:12.353Z,7.77
2019-02-08T12:15:12.324Z,7.73
2019-02-08T12:16:12.350Z,7.70
2019-02-08T12:17:12.307Z,7.70
2019-02-08T12:18:12.285Z,7.79
2019-02-08T12:19:12.271Z,7.66
2019-02-08T12:20:12.288Z,7.63
2019-02-08T12:21:12.250Z,7.72
2019-02-08T12:22:12.232Z,7.69
2019-02-08T12:23:12.226Z,7.73
2019-02-08T12:24:12.224Z,7.61
2019-02-08T12:25:12.229Z,7.63
2019-02-08T12:26:12.186Z,7.72
2019-02-08T12:27:12.174Z,7.60
2019-02-08T12:28:12.166Z,7.60
2019-02-08T12:29:12.157Z,7.54
2019-02-08T12:30:12.260Z,7.67
2019-02-08T12:31:12.132Z,7.73
2019-02-08T12:32:12.126Z,7.58
2019-02-08T12:33:12.108Z,7.66
2019-02-08T12:34:12.089Z,7.63
2019-02-08T12:35:12.112Z,7.58
2019-02-08T12:36:12.072Z,7.56
2019-02-08T12:37:12.117Z,7.66
2019-02-08T12:38:12.105Z,7.58
2019-02-08T12:39:12.065Z,7.50
2019-02-08T12:40:12.074Z,7.58
2019-02-08T12:41:13.028Z,7.53
2019-02-08T12:42:12.093Z,7.54
2019-02-08T12:43:11.983Z,7.51
2019-02-08T12:44:11.975Z,7.48
2019-02-08T12:45:11.958Z,7.32
2019-02-08T12:46:11.947Z,7.43
2019-02-08T12:47:11.960Z,7.28
2019-02-08T12:48:11.930Z,7.33
2019-02-08T12:49:11.911Z,7.28
2019-02-08T12:50:11.901Z,7.24
2019-02-08T12:51:11.914Z,7.35
2019-02-08T12:52:11.875Z,7.36
2019-02-08T12:53:11.877Z,7.28
2019-02-08T12:54:11.878Z,7.18
2019-02-08T12:55:11.848Z,7.29
2019-02-08T12:56:11.856Z,7.23
2019-02-08T12:57:11.836Z,7.24
2019-02-08T12:58:11.811Z,7.17
2019-02-08T12:59:11.796Z,7.15
2019-02-08T13:00:11.797Z,7.13
2019-02-08T13:01:11.798Z,7.14
2019-02-08T13:02:11.760Z,7.10
2019-02-08T13:03:11.750Z,7.17
2019-02-08T13:04:11.763Z,6.97
2019-02-08T13:05:11.729Z,7.13
2019-02-08T13:06:11.737Z,6.93
2019-02-08T13:07:11.702Z,6.96
2019-02-08T13:08:11.692Z,7.06
2019-02-08T13:09:11.694Z,6.99
2019-02-08T13:10:11.671Z,7.05
2019-02-08T13:11:11.687Z,6.95
2019-02-08T13:12:11.644Z,6.99
2019-02-08T13:13:11.632Z,7.00
2019-02-08T13:14:11.624Z,6.93
2019-02-08T13:15:11.615Z,7.06
2019-02-08T13:16:11.635Z,6.95
2019-02-08T13:17:11.619Z,6.95
2019-02-08T13:18:11.582Z,6.99